EBLG/LGG METAR and TAF weather

Enter ICAO airport designator
Station Type Date Time Source
EBLG METAR 2019/05/23 19:20 UTC NOAA

EBLG 231920Z 05003KT CAVOK 18/06 Q1017 NOSIG


Station Type Date Time Source
EBLG Decoded METAR 2019/05/23 19:20 UTC NOAA

Bierset, Belgium (EBLG) 50-39N 005-27E 178M
May 23, 2019 - 03:20 PM EDT / 2019.05.23 1920 UTC
Wind: from the NE (050 degrees) at 3 MPH (3 KT):0
Visibility: greater than 7 mile(s):0
Temperature: 64 F (18 C)
Dew Point: 42 F (6 C)
Relative Humidity: 45%
Pressure (altimeter): 30.03 in. Hg (1017 hPa)
ob: EBLG 231920Z 05003KT CAVOK 18/06 Q1017 NOSIG
cycle: 19

Station Type Date Time Source
EBLG TAF 2019/05/23 18:27 UTC NOAA

TAF EBLG 231710Z 2318/2424 19005KT CAVOK

Example: see airport list